Aérodrome :
LOGIN :

S'inscrire | Disclaimer

   EN    FR    IT 

 










Légende :    VFR   VFR Marginal   IFR   IFR Intensif   IFR Très Intensif
Visi : 
Plafond : 
>= 8 km
>= 3000ft
5 à 8 km
1000 à 3000 ft
1500m à 5 km
500 à 1000 ft
800 à 1500m
200 à 500 ft
< 800m
< 200 ft
Symboles :   Orages  Brouillard  Fortes neiges  Fortes précipitations  Vent > 20 kt
SIGMETs :   Divers  Orages  Givrage  Turbulence  Onde Orograph.  Cendres Volcan.







- Altitude de l'aérodrome : 512 ft
- Code IATA : URO
- Voir les cartes d'approche


LFOP - Rouen Vallée de Seine

DERNIER METAR :
  • 171100Z AUTO 30006KT 260V350 9999 FEW036 SCT045 20/11 Q1022 NOSIG

METARs EXPIRÉS :
  • 171030Z AUTO 31007KT 270V350 9999 SCT035 20/11 Q1021 NOSIG
  • 171000Z AUTO 28008KT 240V330 9999 BKN028 19/12 Q1021 NOSIG
  • 170930Z AUTO 28007KT 260V330 9999 SCT025 19/13 Q1021 NOSIG
  • 170900Z AUTO 30006KT 270V340 9999 ////// 18/12 Q1021

TAF TAF LFOP
Valide du 17 à 06h jusqu'au 18 à 06h UTC


170500Z 1706/1806 30008KT 9999 BKN020
BECMG 1801/1804 0800 FG OVC003
ATIS : +33 2 35 80 80 34
Météo : +33 2 32 86 52 80
Pas de NOTAMs connus pour ce terrain.
1 SIGMET publié pour la FIR Paris (LFFF) :
 
Turbulence forte
LFFF SIGMET 6 VALID 171000/171400 LFPW
LFFF PARIS FIR/UIR SEV TURB FCST WI N4700 E00215 - N4715 E00200 - N4715 E00030 - N5030 E00315 - N5000 E00500 - N4700 E00215 FL250/350 MOV E 20KT INTSF=



MET'MAP, la Météo Aéronautique d'un coup d'oeil ! - Copyright ORBIFLY Décembre 2007 - Disclaimer

ORBIFLY MET'MAP TEAM :

Programmation & Développement : Alexandra Zaïnal
Conception & Développement : Baudouin d'Aumeries
Co-Programmation & Développement : Marc-Olivier Méhu
Soutien technique & logistique : Manuel Goepfert

Contact : metmap@orbifly.com




SOURCES & CREDITS :

   NOAA